Goodhue, Minnesota
Current Conditions -  °F | °C
As of 2:31 PM on Friday 28 Nov 2014 (Local Time) from KRGK Reporting Station
Unknown Precip Unknown Precip  
Wind Chill: 17°   Ceiling: 2100
Heat Index: 25°   Visibility: 5mi
Dew Point: 18°   Wind: 7mph
Humidity: 74%   Direction: 150°SSE
Pressure: 29.87"   Gusts: NA
Location:  44.4°N, 92.62°W
Report Text: KRGK 282031Z AUTO 15006KT 5SM UP BKN021 OVC075 M04/M08 A2987 RMK AO2 LTG DSNT NW
Loading
Personal Weather Stations






























Interactive Weather Map New forecast layout! Learn more

10-Day Weather Forecast

Advertisements
Track Severe Weather on mobile